Time;durP1;ratioP1;P1;durP2;ratioP2;P2;SDS_P1;SDS_P2;PMS_P1;PMS_P2;Temp;Humidity;BMP_temperature;BMP_pressure;BME280_temperature;BME280_humidity;BME280_pressure;Samples;Min_cycle;Max_cycle;Signal;HPM_P1;HPM_P2
2023/08/13 00:01:02;;;;;;;2.78;1.50;;;19.30;92.30;;;;;;6198699;23;20008;-83
2023/08/13 00:03:28;;;;;;;2.15;1.40;;;19.40;92.20;;;;;;6197616;23;20005;-85
2023/08/13 00:05:53;;;;;;;2.65;1.33;;;19.40;92.20;;;;;;6199035;23;20057;-85
2023/08/13 00:08:19;;;;;;;2.42;1.40;;;19.40;92.10;;;;;;6196483;23;20005;-84
2023/08/13 00:10:44;;;;;;;2.25;1.33;;;19.40;92.10;;;;;;6195979;23;20023;-85
2023/08/13 00:13:10;;;;;;;3.42;1.30;;;19.40;92.00;;;;;;6197841;23;20081;-84
2023/08/13 00:15:36;;;;;;;3.03;1.50;;;19.40;92.00;;;;;;6197224;23;20001;-84
2023/08/13 00:18:02;;;;;;;2.65;1.30;;;19.40;92.00;;;;;;6195167;23;20012;-84
2023/08/13 00:20:27;;;;;;;2.03;1.30;;;19.40;92.00;;;;;;6194553;23;20009;-85
2023/08/13 00:22:53;;;;;;;2.70;1.60;;;19.40;92.00;;;;;;6193934;23;20048;-84
2023/08/13 00:25:18;;;;;;;3.95;1.50;;;19.40;92.10;;;;;;6194199;23;20005;-84
2023/08/13 00:27:44;;;;;;;2.00;1.30;;;19.40;92.10;;;;;;6193785;23;20322;-84
2023/08/13 00:30:10;;;;;;;2.60;1.30;;;19.30;92.10;;;;;;6192561;23;20001;-83
2023/08/13 00:32:35;;;;;;;2.45;1.33;;;19.30;92.20;;;;;;6195071;23;19997;-84
2023/08/13 00:35:01;;;;;;;2.80;1.33;;;19.30;92.20;;;;;;6192318;23;20036;-84
2023/08/13 00:37:26;;;;;;;1.98;1.23;;;19.30;92.30;;;;;;6191058;23;20368;-85
2023/08/13 00:39:52;;;;;;;2.10;1.30;;;19.30;92.30;;;;;;6190201;23;20011;-85
2023/08/13 00:42:18;;;;;;;3.38;1.60;;;19.30;92.30;;;;;;6190129;23;20059;-83
2023/08/13 00:44:43;;;;;;;1.83;1.30;;;19.30;92.30;;;;;;6190717;23;20197;-83
2023/08/13 00:47:09;;;;;;;2.00;1.30;;;19.30;92.30;;;;;;6190369;23;20032;-83
2023/08/13 00:49:35;;;;;;;2.50;1.40;;;19.30;92.30;;;;;;6189370;23;20009;-83
2023/08/13 00:52:01;;;;;;;2.75;1.20;;;19.30;92.40;;;;;;6190208;23;20011;-85
2023/08/13 00:54:27;;;;;;;1.98;1.20;;;19.30;92.40;;;;;;6189864;23;20029;-83
2023/08/13 00:56:53;;;;;;;2.88;1.42;;;19.30;92.40;;;;;;6189518;23;20048;-84
2023/08/13 00:59:20;;;;;;;3.20;1.40;;;19.30;92.40;;;;;;6189388;23;20001;-83
2023/08/13 01:01:46;;;;;;;2.00;1.30;;;19.30;92.40;;;;;;6187793;23;20005;-84
2023/08/13 01:04:11;;;;;;;2.60;1.40;;;19.20;92.40;;;;;;6188426;23;20349;-83
2023/08/13 01:07:14;;;;;;;2.92;1.30;;;19.30;92.40;;;;;;6190701;23;20001;-82
2023/08/13 01:09:53;;;;;;;3.05;1.40;;;19.30;92.40;;;;;;6191088;23;20005;-83
2023/08/13 01:12:47;;;;;;;1.90;1.25;;;19.30;92.40;;;;;;6190965;23;20015;-83
2023/08/13 01:15:14;;;;;;;3.47;1.60;;;19.30;92.60;;;;;;6212088;23;20016;-82
2023/08/13 01:17:43;;;;;;;3.28;1.30;;;19.30;92.40;;;;;;6189896;23;20008;-83
2023/08/13 01:20:09;;;;;;;2.63;1.30;;;19.30;92.40;;;;;;6189677;23;20005;-83
2023/08/13 01:22:44;;;;;;;2.95;1.70;;;19.30;92.40;;;;;;6190907;23;20016;-83
2023/08/13 01:25:11;;;;;;;3.03;1.40;;;19.30;92.40;;;;;;6187996;23;20080;-83
2023/08/13 01:28:21;;;;;;;3.25;1.52;;;19.30;92.40;;;;;;6189463;23;20380;-83
2023/08/13 01:30:49;;;;;;;;;;;19.30;92.40;;;;;;6213593;23;20001;-82
2023/08/13 01:33:27;;;;;;;2.85;1.50;;;19.30;92.30;;;;;;6188900;23;19900;-82
2023/08/13 01:36:00;;;;;;;2.53;1.30;;;19.30;92.30;;;;;;6189838;23;20053;-83
2023/08/13 01:38:27;;;;;;;3.72;1.50;;;19.30;92.20;;;;;;6187856;23;20001;-83
2023/08/13 01:40:52;;;;;;;2.55;1.50;;;19.30;92.20;;;;;;6186197;23;20012;-82
2023/08/13 01:43:18;;;;;;;2.65;1.33;;;19.40;92.20;;;;;;6188672;23;20343;-83
2023/08/13 01:45:44;;;;;;;2.53;1.60;;;19.40;92.10;;;;;;6186654;23;20060;-84
2023/08/13 01:48:10;;;;;;;2.70;1.45;;;19.40;92.10;;;;;;6186433;23;20009;-82
2023/08/13 01:50:38;;;;;;;2.33;1.38;;;19.40;92.10;;;;;;6188263;23;20505;-83
2023/08/13 01:53:04;;;;;;;1.85;1.40;;;19.40;92.00;;;;;;6187572;23;20394;-83
2023/08/13 01:55:29;;;;;;;3.13;1.30;;;19.40;92.00;;;;;;6185423;23;20036;-83
2023/08/13 01:57:55;;;;;;;2.38;1.33;;;19.40;92.00;;;;;;6187449;23;20005;-83
2023/08/13 02:00:20;;;;;;;2.30;1.40;;;19.40;92.10;;;;;;6185138;23;20005;-83
2023/08/13 02:02:46;;;;;;;2.55;1.42;;;19.40;92.10;;;;;;6185692;23;20012;-83
2023/08/13 02:05:11;;;;;;;2.40;1.40;;;19.30;92.20;;;;;;6185598;23;20436;-83
2023/08/13 02:07:37;;;;;;;2.17;1.30;;;19.30;92.20;;;;;;6185453;23;20348;-82
2023/08/13 02:10:03;;;;;;;2.55;1.27;;;19.30;92.30;;;;;;6185092;23;19997;-83
2023/08/13 02:12:29;;;;;;;3.10;1.52;;;19.30;92.30;;;;;;6184896;23;20429;-82
2023/08/13 02:14:54;;;;;;;2.50;1.20;;;19.30;92.30;;;;;;6209981;23;20008;-82
2023/08/13 02:17:20;;;;;;;1.70;1.25;;;19.30;92.30;;;;;;6186987;23;20001;-82
2023/08/13 02:19:45;;;;;;;1.80;1.17;;;19.30;92.30;;;;;;6183562;23;20368;-81
2023/08/13 02:22:11;;;;;;;3.35;1.45;;;19.30;92.40;;;;;;6186495;23;19997;-83
2023/08/13 02:24:37;;;;;;;2.63;1.35;;;19.30;92.40;;;;;;6184567;23;20075;-82
2023/08/13 02:27:02;;;;;;;2.92;1.55;;;19.30;92.40;;;;;;6184847;23;20028;-83
2023/08/13 02:29:28;;;;;;;3.65;1.50;;;19.30;92.40;;;;;;6184369;23;20097;-83
2023/08/13 02:31:53;;;;;;;2.65;1.42;;;19.30;92.40;;;;;;6186787;23;20084;-83
2023/08/13 02:34:19;;;;;;;3.00;1.38;;;19.30;92.40;;;;;;6184147;23;20059;-83
2023/08/13 02:36:44;;;;;;;4.00;1.67;;;19.30;92.40;;;;;;6199004;23;20056;-84
2023/08/13 02:39:10;;;;;;;2.72;1.40;;;19.30;92.40;;;;;;6204652;23;20019;-85
2023/08/13 02:41:35;;;;;;;2.53;1.60;;;19.30;92.40;;;;;;6203748;23;20001;-84
2023/08/13 02:44:01;;;;;;;2.75;1.58;;;19.30;92.40;;;;;;6202497;23;20001;-83
2023/08/13 02:46:27;;;;;;;2.63;1.33;;;19.30;92.40;;;;;;6201863;23;20458;-84
2023/08/13 02:48:54;;;;;;;2.70;1.70;;;19.30;92.40;;;;;;6202099;23;20016;-83
2023/08/13 02:51:21;;;;;;;3.38;1.73;;;19.30;92.40;;;;;;6201664;23;20470;-83
2023/08/13 02:53:46;;;;;;;3.63;1.60;;;19.20;92.40;;;;;;6200438;23;20035;-84
2023/08/13 02:56:12;;;;;;;3.00;1.52;;;19.20;92.40;;;;;;6199780;23;20004;-83
2023/08/13 02:58:37;;;;;;;2.63;1.27;;;19.30;92.40;;;;;;6204922;23;20044;-85
2023/08/13 03:01:03;;;;;;;2.50;1.40;;;19.20;92.40;;;;;;6205833;23;20012;-84
2023/08/13 03:03:29;;;;;;;2.90;1.40;;;19.30;92.40;;;;;;6229015;23;20017;-84
2023/08/13 03:05:55;;;;;;;2.22;1.50;;;19.30;92.30;;;;;;6202178;23;20032;-84
2023/08/13 03:08:21;;;;;;;2.72;1.60;;;19.30;92.30;;;;;;6203887;23;20085;-83
2023/08/13 03:10:47;;;;;;;3.67;1.83;;;19.30;92.30;;;;;;6201365;23;20547;-83
2023/08/13 03:13:12;;;;;;;3.05;1.60;;;19.40;92.20;;;;;;6201199;23;20074;-84
2023/08/13 03:15:38;;;;;;;2.10;1.42;;;19.40;92.20;;;;;;6200175;23;20059;-83
2023/08/13 03:18:04;;;;;;;3.28;1.60;;;19.30;92.10;;;;;;6200054;23;20009;-84
2023/08/13 03:20:29;;;;;;;2.97;1.60;;;19.40;92.10;;;;;;6200103;23;20005;-83
2023/08/13 03:22:55;;;;;;;3.38;1.70;;;19.40;92.00;;;;;;6201104;23;19997;-83
2023/08/13 03:25:20;;;;;;;3.05;1.85;;;19.40;92.00;;;;;;6197535;23;20001;-83
2023/08/13 03:27:48;;;;;;;3.10;1.70;;;19.40;92.00;;;;;;6197508;23;20031;-84
2023/08/13 03:30:14;;;;;;;2.70;1.60;;;19.40;92.00;;;;;;6197187;23;20001;-83
2023/08/13 03:32:39;;;;;;;2.78;1.67;;;19.40;92.10;;;;;;6198857;23;20001;-83
2023/08/13 03:35:05;;;;;;;3.80;1.58;;;19.40;92.10;;;;;;6195211;23;20005;-83
2023/08/13 03:37:31;;;;;;;3.25;1.52;;;19.40;92.10;;;;;;6198022;23;19997;-83
2023/08/13 03:39:56;;;;;;;2.47;1.42;;;19.30;92.20;;;;;;6195492;23;20009;-84
2023/08/13 03:42:22;;;;;;;2.97;1.55;;;19.30;92.20;;;;;;6194611;23;20028;-83
2023/08/13 03:44:47;;;;;;;3.22;1.67;;;19.30;92.30;;;;;;6195355;23;20008;-83
2023/08/13 03:47:13;;;;;;;3.63;1.83;;;19.30;92.30;;;;;;6196607;23;20044;-83
2023/08/13 03:49:38;;;;;;;3.15;1.73;;;19.30;92.30;;;;;;6193877;23;20080;-83
2023/08/13 03:52:04;;;;;;;3.22;1.55;;;19.30;92.30;;;;;;6195019;23;20016;-84
2023/08/13 03:54:30;;;;;;;2.92;1.65;;;19.30;92.30;;;;;;6193455;23;20001;-83
2023/08/13 03:56:56;;;;;;;3.25;1.63;;;19.30;92.30;;;;;;6193619;23;20005;-83
2023/08/13 03:59:21;;;;;;;3.67;1.75;;;19.30;92.30;;;;;;6192330;23;20041;-84
2023/08/13 04:01:47;;;;;;;3.40;1.90;;;19.30;92.30;;;;;;6193408;23;20012;-83
2023/08/13 04:04:12;;;;;;;2.88;1.60;;;19.20;92.30;;;;;;6191408;23;20021;-83
2023/08/13 04:06:38;;;;;;;2.78;1.38;;;19.30;92.40;;;;;;6190940;23;20001;-83
2023/08/13 04:09:04;;;;;;;3.08;1.95;;;19.30;92.40;;;;;;6191568;23;20005;-83
2023/08/13 04:11:30;;;;;;;3.35;1.70;;;19.30;92.40;;;;;;6190090;23;20013;-83
2023/08/13 04:13:55;;;;;;;3.08;1.60;;;19.30;92.40;;;;;;6189350;23;20436;-84
2023/08/13 04:16:21;;;;;;;2.97;1.70;;;19.20;92.30;;;;;;6190761;23;20064;-83
2023/08/13 04:18:46;;;;;;;3.40;1.80;;;19.30;92.40;;;;;;6189365;23;20028;-83
2023/08/13 04:21:12;;;;;;;3.95;1.92;;;19.20;92.40;;;;;;6188355;23;20016;-83
2023/08/13 04:23:38;;;;;;;3.05;1.85;;;19.20;92.40;;;;;;6187029;23;20016;-83
2023/08/13 04:26:03;;;;;;;3.65;1.63;;;19.30;92.40;;;;;;6190861;23;20359;-82
2023/08/13 04:28:29;;;;;;;4.15;2.20;;;19.30;92.40;;;;;;6188405;23;20000;-83
2023/08/13 04:30:54;;;;;;;3.40;1.80;;;19.20;92.30;;;;;;6190137;23;20005;-84
2023/08/13 04:33:20;;;;;;;3.20;1.73;;;19.20;92.40;;;;;;6186727;23;20024;-83
2023/08/13 04:35:46;;;;;;;3.80;1.80;;;19.30;92.40;;;;;;6188101;23;20005;-83
2023/08/13 04:38:11;;;;;;;3.17;1.70;;;19.30;92.30;;;;;;6186988;23;20040;-83
2023/08/13 04:40:37;;;;;;;4.30;1.90;;;19.30;92.30;;;;;;6187106;23;20080;-84
2023/08/13 04:43:02;;;;;;;2.75;1.63;;;19.30;92.30;;;;;;6186713;23;20028;-83
2023/08/13 04:45:28;;;;;;;3.55;1.95;;;19.30;92.20;;;;;;6188052;23;20443;-83
2023/08/13 04:47:53;;;;;;;3.33;1.85;;;19.40;92.20;;;;;;6186261;23;20008;-83
2023/08/13 04:50:19;;;;;;;3.85;1.98;;;19.30;92.10;;;;;;6186222;23;20080;-83
2023/08/13 04:52:44;;;;;;;3.25;1.70;;;19.40;92.00;;;;;;6185866;23;20380;-83
2023/08/13 04:55:10;;;;;;;3.45;1.80;;;19.40;92.00;;;;;;6186370;23;20032;-83
2023/08/13 04:57:35;;;;;;;3.35;1.80;;;19.40;91.90;;;;;;6186117;23;20001;-82
2023/08/13 05:00:01;;;;;;;3.50;1.80;;;19.40;91.90;;;;;;6187714;23;20005;-83
2023/08/13 05:02:27;;;;;;;3.35;1.75;;;19.40;91.90;;;;;;6184580;23;20005;-83
2023/08/13 05:04:53;;;;;;;3.35;1.80;;;19.40;91.90;;;;;;6184470;23;20336;-84
2023/08/13 05:07:19;;;;;;;4.43;2.05;;;19.40;91.90;;;;;;6185198;23;20002;-83
2023/08/13 05:09:45;;;;;;;3.53;1.80;;;19.40;92.00;;;;;;6185021;23;20047;-83
2023/08/13 05:12:10;;;;;;;3.22;1.75;;;19.40;92.00;;;;;;6184578;23;20092;-83
2023/08/13 05:14:36;;;;;;;2.92;1.80;;;19.30;92.00;;;;;;6184366;23;20005;-83
2023/08/13 05:17:01;;;;;;;5.22;2.10;;;19.30;92.10;;;;;;6183904;23;20001;-83
2023/08/13 05:19:27;;;;;;;3.05;1.80;;;19.30;92.10;;;;;;6184278;23;20005;-82
2023/08/13 05:21:52;;;;;;;4.15;2.03;;;19.30;92.10;;;;;;6184270;23;20352;-83
2023/08/13 05:24:18;;;;;;;3.25;1.90;;;19.30;92.10;;;;;;6185867;23;20380;-84
2023/08/13 05:26:43;;;;;;;3.53;1.90;;;19.30;92.10;;;;;;6184108;23;20032;-82
2023/08/13 05:29:09;;;;;;;2.95;1.65;;;19.30;92.20;;;;;;6183903;23;20059;-83
2023/08/13 05:31:35;;;;;;;3.00;1.75;;;19.30;92.20;;;;;;6182212;23;20028;-85
2023/08/13 05:34:00;;;;;;;4.00;2.10;;;19.30;92.20;;;;;;6182526;23;20033;-84
2023/08/13 05:36:26;;;;;;;3.65;1.80;;;19.30;92.20;;;;;;6185063;23;20019;-84
2023/08/13 05:38:52;;;;;;;4.03;2.00;;;19.30;92.20;;;;;;6186512;23;20008;-83
2023/08/13 05:41:18;;;;;;;3.03;1.90;;;19.30;92.20;;;;;;6185873;23;20001;-84
2023/08/13 05:43:43;;;;;;;3.78;1.98;;;19.30;92.20;;;;;;6185975;23;20084;-84
2023/08/13 05:53:55;;;;;;;;;;;;;;;;;;;;;
2023/08/13 06:03:14;;;;;;;;;;;;;;;;;;;;;
2023/08/13 06:10:04;;;;;;;3.03;1.88;;;19.30;92.00;;;;;;5827204;24;20022;-84
2023/08/13 06:13:03;;;;;;;3.95;1.95;;;19.40;92.00;;;;;;5855250;24;20013;-83
2023/08/13 06:16:37;;;;;;;4.78;2.35;;;19.40;91.90;;;;;;5906015;24;20017;-84
2023/08/13 06:19:42;;;;;;;4.00;1.83;;;19.40;91.80;;;;;;5859950;24;20015;-84
2023/08/13 06:36:35;;;;;;;4.95;2.30;;;19.60;91.50;;;;;;6150585;23;20416;-85
2023/08/13 06:39:01;;;;;;;4.63;2.30;;;19.60;91.70;;;;;;6014584;23;20026;-81
2023/08/13 07:32:32;;;;;;;4.93;2.40;;;19.70;91.70;;;;;;6130679;23;20454;-87
2023/08/13 08:23:29;;;;;;;4.43;2.10;;;20.10;91.10;;;;;;6066609;23;20013;-83
2023/08/13 08:52:31;;;;;;;4.53;1.90;;;20.20;91.00;;;;;;6127122;23;20032;-85
2023/08/13 09:31:07;;;;;;;5.00;1.75;;;20.50;90.50;;;;;;6016446;23;20107;-83
2023/08/13 09:37:02;;;;;;;5.22;1.70;;;21.10;90.60;;;;;;5928260;24;20475;-83
2023/08/13 09:43:55;;;;;;;;;;;;;;;;;;;;;
2023/08/13 10:02:11;;;;;;;3.53;1.38;;;20.60;90.40;;;;;;6131959;23;20018;-82
2023/08/13 10:04:41;;;;;;;3.65;1.48;;;20.50;90.40;;;;;;6012504;23;20007;-81
2023/08/13 10:10:45;;;;;;;3.45;1.60;;;20.50;90.50;;;;;;5999513;23;20019;-77
2023/08/13 10:13:11;;;;;;;4.40;1.65;;;20.20;90.40;;;;;;6015968;23;19999;-82
2023/08/13 10:15:38;;;;;;;4.15;1.60;;;20.60;90.50;;;;;;6047790;23;20146;-82
2023/08/13 10:18:04;;;;;;;4.25;1.42;;;20.50;90.50;;;;;;6102225;23;20006;-82
2023/08/13 10:20:30;;;;;;;5.22;1.40;;;20.60;90.50;;;;;;6102921;23;20086;-82
2023/08/13 10:22:55;;;;;;;4.72;1.77;;;20.60;90.50;;;;;;6105028;23;20030;-82
2023/08/13 10:25:33;;;;;;;3.75;1.50;;;20.60;90.50;;;;;;6101617;23;20137;-82
2023/08/13 10:27:59;;;;;;;4.70;1.38;;;20.60;90.50;;;;;;6101027;23;20338;-82
2023/08/13 10:30:25;;;;;;;6.18;1.50;;;20.60;90.50;;;;;;6101238;23;20007;-81
2023/08/13 10:32:57;;;;;;;5.07;1.60;;;20.60;90.50;;;;;;6101234;23;20018;-82
2023/08/13 10:35:39;;;;;;;5.65;1.63;;;20.60;90.50;;;;;;6101980;23;19995;-82
2023/08/13 10:38:05;;;;;;;4.57;1.40;;;20.60;90.60;;;;;;6102763;23;20026;-82
2023/08/13 10:40:31;;;;;;;5.85;1.60;;;20.60;90.50;;;;;;6100014;23;20002;-82
2023/08/13 10:42:59;;;;;;;4.68;1.50;;;20.50;90.50;;;;;;6098932;23;20559;-79
2023/08/13 10:45:28;;;;;;;7.32;1.80;;;20.60;90.60;;;;;;6098862;23;20457;-82
2023/08/13 10:48:02;;;;;;;7.20;1.60;;;20.60;90.60;;;;;;6099293;23;20007;-82
2023/08/13 10:50:35;;;;;;;4.60;1.23;;;20.60;90.60;;;;;;6098047;23;20037;-81
2023/08/13 10:53:19;;;;;;;4.05;1.42;;;20.50;90.60;;;;;;6099708;23;20049;-81
2023/08/13 10:55:51;;;;;;;4.45;1.52;;;20.60;90.60;;;;;;6101668;23;20002;-81
2023/08/13 10:58:43;;;;;;;5.78;1.58;;;20.60;90.50;;;;;;6098492;23;20469;-84
2023/08/13 11:01:09;;;;;;;5.68;1.85;;;20.60;90.50;;;;;;6096398;23;20026;-81
2023/08/13 11:03:52;;;;;;;4.00;1.40;;;20.60;90.50;;;;;;6100215;23;20013;-83
2023/08/13 11:06:22;;;;;;;7.30;1.70;;;20.60;90.50;;;;;;6098838;23;19999;-83
2023/08/13 11:08:48;;;;;;;5.82;1.30;;;20.60;90.50;;;;;;6098550;23;20006;-83
2023/08/13 11:11:15;;;;;;;5.75;1.50;;;20.60;90.50;;;;;;6098447;23;20014;-83
2023/08/13 11:13:40;;;;;;;7.43;1.60;;;20.60;90.60;;;;;;6098091;23;20013;-83
2023/08/13 11:16:06;;;;;;;6.57;1.40;;;20.60;90.60;;;;;;6100145;23;20081;-84
2023/08/13 11:18:31;;;;;;;7.15;1.67;;;20.60;90.60;;;;;;6097048;23;20003;-83
2023/08/13 11:20:57;;;;;;;5.35;1.45;;;20.50;90.70;;;;;;6097264;23;20026;-83
2023/08/13 11:23:23;;;;;;;3.70;1.40;;;20.50;90.70;;;;;;6097707;23;20446;-82
2023/08/13 11:25:49;;;;;;;6.30;1.50;;;20.50;90.80;;;;;;6097808;23;20007;-83
2023/08/13 11:28:25;;;;;;;6.13;1.60;;;20.40;90.80;;;;;;6098533;23;20010;-82
2023/08/13 11:30:55;;;;;;;8.52;1.52;;;20.40;90.90;;;;;;6098165;23;20437;-83
2023/08/13 11:33:21;;;;;;;4.00;1.40;;;20.40;90.90;;;;;;6097710;23;20390;-83
2023/08/13 11:35:47;;;;;;;4.78;1.38;;;20.40;91.00;;;;;;6097106;23;20548;-83
2023/08/13 11:38:13;;;;;;;7.00;1.77;;;20.40;91.00;;;;;;6097151;23;20149;-83
2023/08/13 11:40:38;;;;;;;4.72;1.30;;;20.40;91.00;;;;;;6097776;23;20005;-83
2023/08/13 11:43:08;;;;;;;5.13;1.52;;;20.30;91.00;;;;;;6096504;23;19999;-83
2023/08/13 11:45:33;;;;;;;3.20;1.20;;;20.30;91.10;;;;;;6096285;23;20077;-82
2023/08/13 11:48:14;;;;;;;4.53;1.40;;;20.30;91.10;;;;;;6099471;23;20418;-83
2023/08/13 11:50:41;;;;;;;5.28;1.60;;;20.30;91.10;;;;;;6096395;23;20006;-81
2023/08/13 11:53:13;;;;;;;5.60;1.40;;;20.30;91.40;;;;;;6096571;23;19999;-82
2023/08/13 11:55:39;;;;;;;;;;;20.30;91.20;;;;;;6096354;23;20460;-83
2023/08/13 11:58:05;;;;;;;3.47;1.25;;;20.30;91.20;;;;;;6095638;23;19919;-82
2023/08/13 12:00:32;;;;;;;4.10;1.40;;;20.30;91.30;;;;;;6093183;23;20089;-82
2023/08/13 12:02:58;;;;;;;5.50;1.40;;;20.30;91.30;;;;;;6091903;23;20050;-83
2023/08/13 12:05:31;;;;;;;5.22;1.50;;;20.20;91.30;;;;;;6090509;23;20018;-82
2023/08/13 12:07:58;;;;;;;7.10;1.50;;;20.20;91.30;;;;;;6092021;23;20026;-83
2023/08/13 12:10:25;;;;;;;3.17;1.30;;;20.20;91.30;;;;;;6090684;23;20769;-82
2023/08/13 12:12:50;;;;;;;4.70;1.40;;;20.20;91.30;;;;;;6090383;23;20014;-83
2023/08/13 12:15:25;;;;;;;5.13;1.50;;;20.30;91.30;;;;;;6090218;23;20039;-82
2023/08/13 12:17:52;;;;;;;4.80;1.30;;;20.20;91.30;;;;;;6090391;23;20035;-82
2023/08/13 12:20:17;;;;;;;5.10;1.45;;;20.20;91.30;;;;;;6089872;23;20065;-83
2023/08/13 12:22:43;;;;;;;4.03;1.30;;;20.20;91.30;;;;;;6090532;23;20006;-83
2023/08/13 12:25:08;;;;;;;5.32;1.33;;;20.20;91.30;;;;;;6090054;23;20002;-84
2023/08/13 12:27:34;;;;;;;6.25;1.40;;;20.20;91.20;;;;;;6089998;23;20041;-83
2023/08/13 12:30:00;;;;;;;6.38;1.38;;;20.30;91.20;;;;;;6090406;23;20010;-84
2023/08/13 12:32:25;;;;;;;5.60;1.27;;;20.30;91.10;;;;;;6090943;23;20361;-84
2023/08/13 12:34:51;;;;;;;3.30;1.20;;;20.30;91.10;;;;;;6098651;23;20010;-85
2023/08/13 12:37:16;;;;;;;3.75;1.50;;;20.30;91.00;;;;;;6100919;23;20014;-84
2023/08/13 12:39:42;;;;;;;5.20;1.42;;;20.30;91.00;;;;;;6100713;23;20002;-85
2023/08/13 12:42:09;;;;;;;3.97;1.50;;;20.30;91.00;;;;;;6100265;23;20792;-84
2023/08/13 12:44:35;;;;;;;4.55;1.40;;;20.30;91.00;;;;;;6099970;23;20402;-84
2023/08/13 12:47:00;;;;;;;4.55;1.25;;;20.30;91.00;;;;;;6101306;23;20002;-85
2023/08/13 12:49:26;;;;;;;5.80;1.70;;;20.30;91.00;;;;;;6099022;23;20368;-84
2023/08/13 12:51:51;;;;;;;4.18;1.50;;;20.30;91.10;;;;;;6100429;23;20461;-84
2023/08/13 12:54:17;;;;;;;5.43;1.63;;;20.20;91.10;;;;;;6099039;23;20033;-85
2023/08/13 12:56:42;;;;;;;5.25;1.58;;;20.20;91.20;;;;;;6103820;23;20014;-84
2023/08/13 12:59:08;;;;;;;5.35;2.00;;;20.20;91.30;;;;;;6078821;23;20010;-86
2023/08/13 13:01:33;;;;;;;5.53;1.63;;;20.20;91.40;;;;;;6103786;23;20002;-86
2023/08/13 13:03:59;;;;;;;8.25;1.70;;;20.20;91.40;;;;;;6077260;23;19998;-84
2023/08/13 13:06:25;;;;;;;6.28;2.08;;;20.20;91.40;;;;;;6077567;23;20066;-86
2023/08/13 13:08:50;;;;;;;6.63;1.40;;;20.20;91.40;;;;;;6076904;23;20011;-84
2023/08/13 13:11:17;;;;;;;7.82;1.58;;;20.20;91.40;;;;;;6077364;23;20011;-84
2023/08/13 13:13:42;;;;;;;6.43;1.92;;;20.20;91.40;;;;;;6102110;23;20476;-83
2023/08/13 13:16:08;;;;;;;9.45;1.48;;;20.20;91.40;;;;;;6102959;23;20026;-84
2023/08/13 13:18:33;;;;;;;5.63;1.52;;;20.10;91.40;;;;;;6077173;23;20093;-84
2023/08/13 13:20:59;;;;;;;6.18;1.70;;;20.20;91.50;;;;;;6077598;23;20007;-83
2023/08/13 13:23:24;;;;;;;4.97;1.50;;;20.20;91.40;;;;;;6077544;23;21070;-83
2023/08/13 13:25:50;;;;;;;6.50;1.58;;;20.10;91.40;;;;;;6076578;23;20346;-84
2023/08/13 13:28:15;;;;;;;5.88;1.60;;;20.10;91.40;;;;;;6076132;23;20010;-84
2023/08/13 13:30:41;;;;;;;6.25;1.50;;;20.10;91.40;;;;;;6102150;23;20053;-84
2023/08/13 13:33:06;;;;;;;5.50;1.40;;;20.10;91.40;;;;;;6101906;23;20003;-78
2023/08/13 13:35:32;;;;;;;5.20;1.50;;;20.10;91.40;;;;;;6075960;23;20050;-79
2023/08/13 13:37:58;;;;;;;6.03;1.40;;;20.10;91.40;;;;;;6099958;23;20436;-85
2023/08/13 13:40:26;;;;;;;4.18;1.40;;;20.10;91.40;;;;;;6073489;23;20018;-85
2023/08/13 13:42:54;;;;;;;7.03;1.75;;;20.10;91.60;;;;;;6072922;23;20006;-84
2023/08/13 13:45:20;;;;;;;3.78;1.20;;;20.10;91.40;;;;;;6072654;23;20034;-84
2023/08/13 13:47:46;;;;;;;3.65;1.40;;;20.10;91.40;;;;;;6072167;23;20066;-85
2023/08/13 13:50:14;;;;;;;4.70;1.50;;;20.10;91.40;;;;;;6072493;23;20010;-84
2023/08/13 13:52:39;;;;;;;4.07;1.20;;;20.10;91.40;;;;;;6071794;23;20017;-83
2023/08/13 13:55:05;;;;;;;4.20;1.63;;;20.10;91.40;;;;;;6071451;23;20085;-87
2023/08/13 13:57:31;;;;;;;2.92;1.38;;;20.20;91.40;;;;;;6085637;23;20793;-83
2023/08/13 13:59:56;;;;;;;4.78;1.35;;;20.20;91.30;;;;;;6097895;23;20010;-84
2023/08/13 14:02:22;;;;;;;4.82;1.35;;;20.20;91.20;;;;;;6095436;23;20085;-84
2023/08/13 14:04:47;;;;;;;5.40;1.58;;;20.20;91.20;;;;;;6096230;23;20430;-85
2023/08/13 14:07:13;;;;;;;6.03;1.75;;;20.20;91.10;;;;;;6094911;23;20006;-84
2023/08/13 14:09:39;;;;;;;4.07;1.40;;;20.20;91.10;;;;;;6094504;23;20017;-84
2023/08/13 14:12:06;;;;;;;5.97;1.30;;;20.20;91.00;;;;;;6093972;23;20386;-86
2023/08/13 14:14:31;;;;;;;4.53;1.35;;;20.30;91.00;;;;;;6096608;23;20011;-85
2023/08/13 14:16:57;;;;;;;4.03;1.23;;;20.30;91.00;;;;;;6096178;23;20023;-85
2023/08/13 14:19:22;;;;;;;2.55;1.25;;;20.30;91.00;;;;;;6094160;23;20010;-84
2023/08/13 14:21:48;;;;;;;4.47;1.40;;;20.30;91.00;;;;;;6096179;23;20002;-85
2023/08/13 14:24:14;;;;;;;4.35;1.25;;;20.30;91.10;;;;;;6093781;23;20002;-84
2023/08/13 14:26:40;;;;;;;4.93;1.45;;;20.30;91.10;;;;;;6092980;23;20003;-84
2023/08/13 14:29:05;;;;;;;4.45;1.20;;;20.20;91.10;;;;;;6093442;23;20022;-84
2023/08/13 14:31:31;;;;;;;6.45;1.60;;;20.20;91.20;;;;;;6093303;23;20011;-85
2023/08/13 14:33:56;;;;;;;2.72;1.13;;;20.20;91.20;;;;;;6092582;23;20010;-84
2023/08/13 14:36:22;;;;;;;3.45;1.42;;;20.20;91.30;;;;;;6091655;23;20017;-81
2023/08/13 14:38:48;;;;;;;4.03;1.40;;;20.20;91.30;;;;;;6092291;23;20086;-85
2023/08/13 14:41:13;;;;;;;4.07;1.40;;;20.10;91.30;;;;;;6091759;23;20037;-82
2023/08/13 14:43:42;;;;;;;3.45;1.40;;;20.20;91.40;;;;;;6093559;23;20015;-83
2023/08/13 14:46:07;;;;;;;2.80;1.25;;;20.10;91.30;;;;;;6091312;23;20437;-86
2023/08/13 14:48:33;;;;;;;3.25;1.27;;;20.10;91.40;;;;;;6091336;23;20057;-86
2023/08/13 14:50:58;;;;;;;4.13;1.50;;;20.10;91.50;;;;;;6093389;23;20015;-86
2023/08/13 14:53:24;;;;;;;3.72;1.25;;;20.10;91.50;;;;;;6092633;23;20010;-86
2023/08/13 14:55:49;;;;;;;2.47;1.20;;;20.10;91.40;;;;;;6092524;23;20010;-85
2023/08/13 14:58:15;;;;;;;3.22;1.33;;;20.10;91.50;;;;;;6092533;23;20022;-84
2023/08/13 15:00:40;;;;;;;4.28;1.52;;;20.10;91.40;;;;;;6066958;23;20017;-83
2023/08/13 15:03:06;;;;;;;3.75;1.35;;;20.10;91.40;;;;;;6093826;23;19998;-85
2023/08/13 15:05:34;;;;;;;4.28;1.20;;;20.10;91.40;;;;;;6067786;23;20005;-84
2023/08/13 15:08:00;;;;;;;3.08;1.20;;;20.10;91.50;;;;;;6067642;23;20492;-82
2023/08/13 15:10:25;;;;;;;2.22;1.10;;;20.10;91.50;;;;;;6093341;23;20025;-86
2023/08/13 15:12:51;;;;;;;3.92;1.40;;;20.10;91.60;;;;;;6067593;23;20682;-85
2023/08/13 15:15:16;;;;;;;3.97;1.30;;;20.10;91.60;;;;;;6066937;23;20026;-85
2023/08/13 15:17:42;;;;;;;6.68;1.95;;;20.10;91.50;;;;;;6067523;23;20017;-86
2023/08/13 15:20:08;;;;;;;5.55;1.33;;;20.10;91.60;;;;;;6066992;23;20054;-86
2023/08/13 15:22:34;;;;;;;4.43;1.20;;;20.10;91.50;;;;;;6067629;23;19994;-88
2023/08/13 15:25:02;;;;;;;5.10;1.58;;;20.10;91.50;;;;;;6066896;23;20050;-85
2023/08/13 15:27:28;;;;;;;3.08;1.15;;;20.10;91.40;;;;;;6066970;23;20077;-85
2023/08/13 15:29:54;;;;;;;3.92;1.20;;;20.10;91.40;;;;;;6067474;23;20029;-86
2023/08/13 15:32:19;;;;;;;9.55;1.73;;;20.10;91.40;;;;;;6092502;23;20013;-85
2023/08/13 15:34:45;;;;;;;5.28;1.73;;;20.20;91.50;;;;;;6066860;23;20002;-86
2023/08/13 15:37:10;;;;;;;4.63;1.48;;;20.20;91.40;;;;;;6067101;23;20850;-84
2023/08/13 15:39:36;;;;;;;4.13;1.60;;;20.20;91.30;;;;;;6067094;23;20434;-85
2023/08/13 15:42:01;;;;;;;3.55;1.35;;;20.20;91.20;;;;;;6067078;23;20006;-85
2023/08/13 15:44:27;;;;;;;4.45;1.38;;;20.20;91.20;;;;;;6065414;23;20387;-85
2023/08/13 15:46:53;;;;;;;6.60;1.50;;;20.20;91.20;;;;;;6099837;23;20070;-86
2023/08/13 15:49:19;;;;;;;4.95;1.52;;;20.20;91.20;;;;;;6098822;23;20064;-86
2023/08/13 15:51:45;;;;;;;5.97;1.42;;;20.20;91.10;;;;;;6074721;23;20477;-86
2023/08/13 15:54:10;;;;;;;3.08;1.25;;;20.20;91.20;;;;;;6077040;23;20006;-83
2023/08/13 16:04:35;;;;;;;3.67;1.40;;;20.10;91.40;;;;;;6130132;23;20022;-84
2023/08/13 16:07:42;;;;;;;4.53;1.35;;;20.10;91.40;;;;;;6142180;23;20032;-88
2023/08/13 16:24:44;;;;;;;4.15;1.40;;;20.00;91.50;;;;;;6129861;23;20026;-87
2023/08/13 16:31:19;;;;;;;5.30;1.60;;;20.00;91.60;;;;;;5979453;24;20496;-88
2023/08/13 16:36:52;;;;;;;4.15;1.20;;;20.00;91.70;;;;;;6125234;23;20021;-85
2023/08/13 16:39:39;;;;;;;2.95;1.23;;;20.00;91.60;;;;;;6127264;23;20041;-82
2023/08/13 16:42:30;;;;;;;3.90;1.23;;;19.90;91.60;;;;;;6124663;23;20064;-84
2023/08/13 16:57:33;;;;;;;;;;;;;;;;;;;;;
2023/08/13 17:00:40;;;;;;;4.53;1.20;;;20.00;91.50;;;;;;6094959;23;20081;-85
2023/08/13 17:30:32;;;;;;;2.80;1.20;;;20.00;91.40;;;;;;6088324;23;20036;-87
2023/08/13 17:32:58;;;;;;;3.03;1.20;;;20.00;91.50;;;;;;6124764;23;20022;-84
2023/08/13 17:35:23;;;;;;;5.13;1.48;;;20.10;91.60;;;;;;6122590;23;20485;-84
2023/08/13 17:37:49;;;;;;;2.92;1.13;;;20.00;91.60;;;;;;6125361;23;19998;-83
2023/08/13 17:40:15;;;;;;;4.13;1.45;;;20.00;91.60;;;;;;6123852;23;20013;-83
2023/08/13 17:42:40;;;;;;;4.47;1.38;;;20.00;91.60;;;;;;6123660;23;19994;-83
2023/08/13 17:45:06;;;;;;;5.38;1.48;;;20.00;91.70;;;;;;6123118;23;20018;-84
2023/08/13 17:47:32;;;;;;;2.50;1.20;;;19.90;91.60;;;;;;6125259;23;20002;-83